Shellman Bluff, Georgia
Current Conditions -  °F | °C
As of 4:35 AM on Thursday 27 Nov 2014 (Local Time) from KBQK Reporting Station
Clear Clear  
Wind Chill: 41°   Ceiling: Unl
Heat Index: 46°   Visibility: 10mi
Dew Point: 36°   Wind: 10mph
Humidity: 66%   Direction: 240°WSW
Pressure: 30.17"   Gusts: NA
Location:  31.5632°N, 81.4638°W
Report Text: KBQK 270935Z AUTO 24009KT 10SM CLR 08/02 A3017 RMK AO1
Loading
Personal Weather Stations






























Interactive Weather Map New forecast layout! Learn more

10-Day Weather Forecast

Advertisements
Track Severe Weather on mobile